Amboy, WA

5:59 AM PST on December 19, 2014 (GMT -0800)
Rock Creek Area | Change Station
CLOSE
Current Station
Personal Weather Station
Location: Battle Ground, WA
Elevation: 420 ft
Nearby Weather Stations
Active Advisory: Special Statement

Elev 420 ft 45.85 °N, 122.52 °W | Updated 1 minute ago

Rain
Rain
45.1 °F
Feels Like 45 °F
N
0.0
Wind Variable Wind from SW
Gusts 11.0 mph

Today
High -- | Low -- °F
--% Chance of Precip.
Yesterday
High -- | Low -- °F
Precip. -- in
7:47 AM 4:27 PM
Waning Crescent, 8% visible
Pressure 29.90 in
Visibility 10.0 miles
Clouds Mostly Cloudy 1900 ft
Mostly Cloudy 7500 ft
Overcast 10000 ft
Windchill 45 °F
Dew Point 23 °F
Humidity 41%
Rainfall 0.00 in
Snow Depth Not available.
UV 0.0 out of 12
Pollen .50 out of 12
Air Quality Not available.
Flu Activity Not available.
METAR KSPB 191353Z AUTO 16006KT 10SM BKN019 BKN075 OVC100 08/07 A2990 RMK AO2 RAE25 SLP124 P0001 T00830067

More Conditions Fewer Conditions

Pressure 29.90 in
Visibility 10.0 miles
Clouds Mostly Cloudy 1900 ft
Mostly Cloudy 7500 ft
Overcast 10000 ft
Windchill 45 °F
Dew Point 23 °F
Humidity 41%
Rainfall 0.00 in
Snow Depth Not available.
UV 0.0 out of 12
Pollen .50 out of 12
Air Quality Not available.
Flu Activity Not available.
METAR KSPB 191353Z AUTO 16006KT 10SM BKN019 BKN075 OVC100 08/07 A2990 RMK AO2 RAE25 SLP124 P0001 T00830067

More Conditions Fewer Conditions

10-Day Weather Forecast

Almanac

Astronomy

Dec. 19, 2014 Rise Set
Actual Time
Civil Twilight
Nautical Twilight
Astronomical Twilight
Moon
Length of Visible Light
Length of Day
Tomorrow will be .
, % of the Moon is Illuminated

Today's Extremes

State Highs State Lows

Community

WunderPhotos

Upload Photos

1,778,987 photos uploaded!

WunderBlogs® & News

Nearby

Air Quality

  Air Quality AQ Index Pollutant
Not available.

Snow Depth

Station Depth Elevation

Earthquake Activity

City Distance Mag. Time & Date
Minimum magnitude displayed is 2.5.

Coastal Water Temperatures

Place Temperature

Nearby Weather Stations